createdAt,value
2019-01-31T00:00:44.801Z,10.91
2019-01-31T00:04:18.483Z,10.81
2019-01-31T00:07:52.224Z,10.82
2019-01-31T00:11:31.820Z,10.89
2019-01-31T00:14:50.653Z,10.77
2019-01-31T00:18:46.112Z,10.69
2019-01-31T00:22:37.989Z,10.92
2019-01-31T00:26:22.334Z,11.05
2019-01-31T00:29:59.339Z,11.07
2019-01-31T00:33:19.105Z,10.95
2019-01-31T00:36:47.817Z,10.90
2019-01-31T00:40:23.930Z,10.77
2019-01-31T00:44:21.582Z,10.93
2019-01-31T00:48:00.435Z,10.94
2019-01-31T00:51:37.700Z,11.05
2019-01-31T00:55:21.160Z,10.75
2019-01-31T00:59:04.468Z,10.72
2019-01-31T01:02:44.729Z,10.73
2019-01-31T01:06:23.475Z,10.47
2019-01-31T01:09:59.204Z,10.61
2019-01-31T01:13:52.096Z,10.62
2019-01-31T01:17:16.615Z,10.60
2019-01-31T01:20:41.894Z,10.68
2019-01-31T01:24:02.676Z,10.61
2019-01-31T01:27:42.926Z,10.74
2019-01-31T01:31:41.860Z,10.69
2019-01-31T01:35:34.450Z,10.70
2019-01-31T01:39:19.255Z,10.72
2019-01-31T01:42:42.107Z,10.69
2019-01-31T01:46:26.426Z,10.53
2019-01-31T01:50:02.392Z,10.60
2019-01-31T01:53:59.093Z,10.10
2019-01-31T01:57:35.295Z,10.21
2019-01-31T02:01:25.294Z,10.50
2019-01-31T02:05:09.560Z,10.32
2019-01-31T02:09:04.658Z,10.40
2019-01-31T02:12:42.159Z,10.47
2019-01-31T02:16:23.485Z,10.46
2019-01-31T02:20:18.745Z,10.40
2019-01-31T02:23:43.660Z,10.39
2019-01-31T02:27:13.413Z,10.38
2019-01-31T02:31:02.383Z,10.44
2019-01-31T02:34:48.267Z,10.45
2019-01-31T02:38:07.915Z,10.50
2019-01-31T02:41:29.231Z,9.88
2019-01-31T02:45:02.444Z,10.03
2019-01-31T02:48:18.132Z,10.14
2019-01-31T02:51:49.793Z,10.16
2019-01-31T02:55:39.319Z,10.16
2019-01-31T02:59:18.467Z,10.28
2019-01-31T03:02:40.599Z,10.16
2019-01-31T03:06:14.120Z,10.31
2019-01-31T03:10:03.906Z,9.81
2019-01-31T03:13:35.821Z,10.11
2019-01-31T03:17:17.157Z,10.08
2019-01-31T03:20:42.983Z,9.95
2019-01-31T03:24:30.428Z,9.53
2019-01-31T03:28:32.503Z,9.70
2019-01-31T03:32:03.916Z,9.31
2019-01-31T03:35:36.332Z,9.68
2019-01-31T03:39:26.905Z,9.93
2019-01-31T03:43:19.051Z,9.76
2019-01-31T03:47:08.328Z,9.20
2019-01-31T03:51:03.487Z,9.24
2019-01-31T03:54:53.798Z,9.40
2019-01-31T03:58:27.428Z,9.16
2019-01-31T04:01:49.152Z,9.29
2019-01-31T04:05:34.916Z,9.47
2019-01-31T04:08:40.886Z,9.61
2019-01-31T04:11:46.946Z,9.31
2019-01-31T04:14:52.802Z,9.14
2019-01-31T04:17:58.709Z,9.10
2019-01-31T04:21:04.651Z,9.12
2019-01-31T04:24:10.729Z,9.20
2019-01-31T04:27:16.607Z,9.28
2019-01-31T04:30:22.667Z,8.87
2019-01-31T04:33:28.622Z,9.19
2019-01-31T04:36:34.570Z,9.24
2019-01-31T04:39:40.432Z,9.38
2019-01-31T04:42:46.395Z,9.20
2019-01-31T04:45:52.257Z,9.31
2019-01-31T04:48:58.266Z,9.14
2019-01-31T04:52:05.312Z,8.98
2019-01-31T04:55:11.372Z,8.91
2019-01-31T04:58:17.216Z,8.85
2019-01-31T05:01:23.062Z,8.99
2019-01-31T05:04:28.913Z,9.03
2019-01-31T05:07:34.769Z,8.49
2019-01-31T05:10:43.327Z,8.73
2019-01-31T05:13:48.258Z,8.73
2019-01-31T05:16:54.089Z,9.18
2019-01-31T05:19:59.983Z,9.28
2019-01-31T05:23:06.019Z,9.33
2019-01-31T05:26:11.922Z,9.28
2019-01-31T05:29:17.837Z,9.23
2019-01-31T05:32:23.736Z,9.35
2019-01-31T05:35:29.777Z,9.44
2019-01-31T05:38:35.630Z,9.45
2019-01-31T05:41:41.613Z,9.00
2019-01-31T05:44:47.676Z,9.25
2019-01-31T05:47:53.502Z,8.63
2019-01-31T05:50:59.370Z,8.77
2019-01-31T05:54:05.535Z,8.26
2019-01-31T05:57:11.474Z,8.71
2019-01-31T06:00:22.599Z,9.16
2019-01-31T06:03:28.482Z,9.29
2019-01-31T06:06:34.358Z,8.46
2019-01-31T06:09:40.198Z,9.04
2019-01-31T06:12:46.182Z,9.11
2019-01-31T06:15:52.013Z,9.07
2019-01-31T06:18:57.895Z,9.24
2019-01-31T06:22:03.861Z,8.97
2019-01-31T06:25:09.923Z,9.34
2019-01-31T06:28:15.783Z,9.30
2019-01-31T06:31:21.640Z,8.91
2019-01-31T06:34:27.492Z,8.80
2019-01-31T06:37:33.350Z,8.72
2019-01-31T06:40:39.284Z,8.88
2019-01-31T06:43:45.136Z,8.89
2019-01-31T06:46:51.027Z,9.17
2019-01-31T06:49:56.879Z,9.33
2019-01-31T06:53:02.778Z,9.27
2019-01-31T06:56:08.732Z,8.86
2019-01-31T06:59:14.744Z,9.24
2019-01-31T07:02:20.618Z,9.07
2019-01-31T07:05:26.445Z,9.19
2019-01-31T07:08:32.279Z,8.74
2019-01-31T07:11:38.239Z,9.23
2019-01-31T07:14:44.096Z,9.40
2019-01-31T07:17:50.236Z,9.28
2019-01-31T07:20:56.196Z,8.71
2019-01-31T07:24:02.172Z,9.55
2019-01-31T07:27:07.994Z,9.36
2019-01-31T07:30:14.950Z,9.26
2019-01-31T07:33:20.808Z,8.87
2019-01-31T07:36:26.790Z,9.39
2019-01-31T07:39:32.734Z,9.64
2019-01-31T07:42:38.604Z,9.85
2019-01-31T07:45:44.719Z,10.07
2019-01-31T07:48:50.645Z,9.97
2019-01-31T07:51:56.501Z,9.89
2019-01-31T07:55:02.419Z,9.90
2019-01-31T07:58:08.345Z,9.86
2019-01-31T08:01:14.417Z,10.04
2019-01-31T08:04:20.270Z,10.16
2019-01-31T08:07:28.746Z,10.12
2019-01-31T08:10:37.948Z,10.20
2019-01-31T08:13:43.783Z,10.38
2019-01-31T08:16:49.658Z,10.19
2019-01-31T08:19:55.511Z,10.11
2019-01-31T08:23:01.569Z,10.05
2019-01-31T08:26:08.555Z,10.01
2019-01-31T08:29:14.589Z,9.86
2019-01-31T08:32:20.558Z,9.88
2019-01-31T08:35:26.512Z,10.02
2019-01-31T08:38:32.364Z,9.65
2019-01-31T08:41:38.316Z,10.09
2019-01-31T08:44:44.274Z,9.81
2019-01-31T08:47:50.306Z,10.20
2019-01-31T08:50:56.327Z,10.08
2019-01-31T08:54:02.209Z,10.09
2019-01-31T08:57:08.224Z,10.20
2019-01-31T09:00:22.730Z,10.69
2019-01-31T09:03:28.712Z,10.04
2019-01-31T09:06:34.679Z,10.80
2019-01-31T09:09:41.658Z,10.45
2019-01-31T09:12:47.655Z,10.45
2019-01-31T09:15:53.513Z,10.38
2019-01-31T09:18:59.293Z,10.24
2019-01-31T09:22:14.589Z,10.25
2019-01-31T09:25:52.555Z,10.16
2019-01-31T09:29:31.732Z,10.21
2019-01-31T09:33:28.853Z,10.08
2019-01-31T09:37:18.334Z,10.13
2019-01-31T09:40:54.175Z,9.88
2019-01-31T09:44:48.574Z,10.02
2019-01-31T09:48:34.543Z,9.97
2019-01-31T09:52:17.759Z,9.64
2019-01-31T09:55:57.307Z,9.80
2019-01-31T09:59:49.678Z,10.06
2019-01-31T10:03:34.707Z,10.30
2019-01-31T10:07:26.031Z,10.13
2019-01-31T10:11:14.522Z,10.30
2019-01-31T10:14:53.081Z,10.30
2019-01-31T10:18:24.626Z,9.35
2019-01-31T10:22:18.852Z,9.54
2019-01-31T10:26:11.139Z,9.67
2019-01-31T10:30:05.452Z,9.60
2019-01-31T10:33:42.434Z,9.65
2019-01-31T10:37:34.431Z,9.24
2019-01-31T10:41:12.954Z,9.03
2019-01-31T10:44:53.063Z,9.37
2019-01-31T10:48:44.178Z,9.88
2019-01-31T10:52:38.998Z,9.37
2019-01-31T10:56:19.726Z,9.70
2019-01-31T11:00:21.241Z,9.64
2019-01-31T11:04:15.425Z,9.73
2019-01-31T11:08:02.248Z,9.39
2019-01-31T11:11:24.684Z,10.11
2019-01-31T11:15:01.519Z,9.66
2019-01-31T11:18:48.815Z,9.36
2019-01-31T11:22:40.093Z,9.90
2019-01-31T11:26:35.598Z,9.86
2019-01-31T11:30:18.028Z,10.00
2019-01-31T11:34:14.702Z,9.88
2019-01-31T11:37:41.821Z,9.81
2019-01-31T11:41:31.384Z,9.27
2019-01-31T11:45:26.981Z,9.58
2019-01-31T11:49:09.395Z,9.90
2019-01-31T11:53:01.314Z,9.75
2019-01-31T11:56:28.243Z,9.73
2019-01-31T11:59:34.051Z,9.99
2019-01-31T12:02:39.990Z,10.12
2019-01-31T12:05:45.927Z,10.44
2019-01-31T12:08:51.725Z,10.66
2019-01-31T12:11:57.665Z,10.16
2019-01-31T12:15:03.673Z,10.19
2019-01-31T12:18:10.318Z,10.27
2019-01-31T12:21:16.259Z,10.16
2019-01-31T12:24:22.171Z,10.56
2019-01-31T12:27:28.082Z,10.00
2019-01-31T12:30:33.957Z,10.50
2019-01-31T12:33:39.785Z,10.74
2019-01-31T12:36:45.785Z,10.69
2019-01-31T12:39:52.186Z,10.92
2019-01-31T12:42:58.263Z,11.04
2019-01-31T12:46:04.358Z,10.88
2019-01-31T12:49:10.324Z,10.47
2019-01-31T12:52:16.251Z,10.37
2019-01-31T12:55:22.203Z,10.79
2019-01-31T12:58:33.750Z,10.95
2019-01-31T13:01:35.992Z,10.94
2019-01-31T13:04:41.998Z,10.98
2019-01-31T13:07:48.119Z,10.77
2019-01-31T13:10:54.056Z,10.86
2019-01-31T13:13:59.957Z,10.23
2019-01-31T13:17:07.260Z,10.28
2019-01-31T13:20:19.184Z,10.28
2019-01-31T13:23:25.282Z,10.37
2019-01-31T13:26:31.168Z,10.51
2019-01-31T13:29:37.017Z,10.33
2019-01-31T13:32:43.003Z,10.12
2019-01-31T13:35:49.573Z,9.88
2019-01-31T13:38:55.916Z,9.93
2019-01-31T13:42:01.840Z,10.20
2019-01-31T13:45:09.153Z,10.36
2019-01-31T13:48:16.620Z,10.27
2019-01-31T13:51:22.394Z,10.23
2019-01-31T13:54:28.690Z,10.13
2019-01-31T13:57:34.589Z,9.89
2019-01-31T14:00:40.571Z,10.24
2019-01-31T14:03:46.422Z,10.46
2019-01-31T14:06:52.529Z,10.38
2019-01-31T14:09:58.388Z,10.53
2019-01-31T14:13:04.383Z,10.56
2019-01-31T14:16:10.456Z,10.60
2019-01-31T14:19:16.432Z,10.59
2019-01-31T14:22:22.377Z,10.31
2019-01-31T14:25:28.453Z,10.39
2019-01-31T14:28:34.580Z,10.64
2019-01-31T14:31:40.520Z,10.63
2019-01-31T14:34:46.407Z,10.38
2019-01-31T14:37:52.373Z,10.65
2019-01-31T14:40:58.313Z,10.61
2019-01-31T14:44:04.595Z,10.24
2019-01-31T14:47:10.482Z,10.40
2019-01-31T14:50:20.356Z,10.57
2019-01-31T14:53:26.337Z,10.53
2019-01-31T14:56:32.189Z,10.40
2019-01-31T14:59:38.084Z,10.44
2019-01-31T15:02:43.954Z,10.43
2019-01-31T15:05:49.836Z,10.28
2019-01-31T15:08:55.760Z,10.42
2019-01-31T15:12:01.787Z,10.34
2019-01-31T15:15:08.819Z,10.33
2019-01-31T15:18:14.918Z,10.16
2019-01-31T15:21:20.944Z,10.27
2019-01-31T15:24:27.488Z,10.35
2019-01-31T15:27:33.477Z,10.39
2019-01-31T15:30:39.563Z,10.46
2019-01-31T15:33:45.401Z,10.53
2019-01-31T15:36:51.395Z,10.29
2019-01-31T15:39:59.449Z,10.50
2019-01-31T15:43:05.481Z,10.40
2019-01-31T15:46:11.509Z,10.31
2019-01-31T15:49:18.685Z,10.29
2019-01-31T15:52:24.670Z,10.33
2019-01-31T15:55:30.808Z,10.36
2019-01-31T15:58:36.896Z,10.43
2019-01-31T16:01:42.754Z,10.32
2019-01-31T16:04:48.779Z,10.27
2019-01-31T16:07:54.750Z,10.22
2019-01-31T16:11:00.766Z,10.23
2019-01-31T16:14:07.006Z,10.40
2019-01-31T16:17:13.108Z,10.30
2019-01-31T16:20:19.107Z,9.87
2019-01-31T16:23:25.236Z,10.15
2019-01-31T16:26:31.244Z,9.91
2019-01-31T16:29:37.104Z,10.28
2019-01-31T16:32:43.060Z,10.14
2019-01-31T16:35:49.726Z,10.07
2019-01-31T16:38:55.686Z,10.14
2019-01-31T16:42:01.665Z,10.36
2019-01-31T16:45:09.698Z,9.95
2019-01-31T16:48:15.702Z,10.30
2019-01-31T16:51:21.676Z,10.31
2019-01-31T16:54:27.648Z,10.37
2019-01-31T16:57:33.626Z,10.37
2019-01-31T17:00:39.683Z,10.40
2019-01-31T17:03:45.650Z,10.16
2019-01-31T17:06:51.607Z,10.31
2019-01-31T17:09:57.814Z,10.38
2019-01-31T17:13:04.319Z,10.49
2019-01-31T17:16:11.183Z,10.57
2019-01-31T17:19:17.283Z,10.24
2019-01-31T17:22:23.284Z,10.23
2019-01-31T17:25:29.343Z,10.19
2019-01-31T17:28:35.303Z,10.40
2019-01-31T17:31:41.411Z,10.22
2019-01-31T17:34:47.272Z,10.31
2019-01-31T17:37:53.241Z,10.21
2019-01-31T17:40:59.196Z,10.23
2019-01-31T17:44:05.346Z,10.22
2019-01-31T17:47:11.330Z,10.09
2019-01-31T17:50:17.697Z,9.98
2019-01-31T17:53:23.573Z,10.17
2019-01-31T17:56:29.444Z,10.02
2019-01-31T17:59:35.382Z,9.97
2019-01-31T18:02:45.501Z,9.90
2019-01-31T18:05:49.049Z,9.73
2019-01-31T18:08:54.874Z,9.65
2019-01-31T18:12:00.744Z,9.54
2019-01-31T18:15:07.695Z,9.61
2019-01-31T18:18:13.726Z,9.59
2019-01-31T18:21:19.659Z,9.47
2019-01-31T18:24:25.498Z,9.26
2019-01-31T18:27:31.355Z,9.31
2019-01-31T18:30:37.412Z,9.22
2019-01-31T18:33:43.233Z,9.08
2019-01-31T18:36:49.214Z,9.13
2019-01-31T18:39:55.092Z,9.10
2019-01-31T18:43:00.945Z,9.05
2019-01-31T18:46:07.129Z,9.02
2019-01-31T18:49:15.025Z,8.98
2019-01-31T18:52:20.968Z,8.83
2019-01-31T18:55:27.727Z,9.06
2019-01-31T18:58:33.574Z,8.99
2019-01-31T19:01:43.573Z,9.01
2019-01-31T19:04:49.524Z,9.06
2019-01-31T19:07:55.864Z,8.72
2019-01-31T19:11:02.064Z,8.70
2019-01-31T19:14:08.053Z,8.66
2019-01-31T19:17:13.988Z,8.65
2019-01-31T19:20:27.831Z,8.63
2019-01-31T19:23:33.794Z,8.87
2019-01-31T19:26:39.658Z,8.75
2019-01-31T19:29:49.444Z,8.48
2019-01-31T19:32:55.515Z,8.66
2019-01-31T19:36:01.347Z,8.68
2019-01-31T19:39:17.843Z,8.71
2019-01-31T19:42:25.556Z,9.02
2019-01-31T19:45:43.243Z,8.72
2019-01-31T19:48:57.171Z,8.73
2019-01-31T19:52:03.856Z,8.77
2019-01-31T19:55:11.722Z,8.76
2019-01-31T19:58:17.574Z,8.68
2019-01-31T20:01:23.437Z,8.61
2019-01-31T20:04:30.479Z,8.70
2019-01-31T20:07:36.546Z,8.84
2019-01-31T20:10:42.607Z,9.03
2019-01-31T20:13:48.665Z,9.01
2019-01-31T20:16:54.658Z,9.06
2019-01-31T20:20:00.544Z,9.27
2019-01-31T20:23:07.394Z,9.19
2019-01-31T20:26:13.361Z,9.13
2019-01-31T20:29:19.430Z,9.28
2019-01-31T20:32:25.309Z,9.38
2019-01-31T20:35:31.763Z,9.41
2019-01-31T20:38:38.048Z,9.32
2019-01-31T20:41:53.851Z,9.30
2019-01-31T20:44:52.808Z,9.37
2019-01-31T20:47:58.961Z,9.28
2019-01-31T20:51:06.005Z,9.52
2019-01-31T20:54:12.038Z,9.45
2019-01-31T20:57:17.957Z,9.47
2019-01-31T21:00:28.066Z,9.43
2019-01-31T21:03:34.021Z,9.49
2019-01-31T21:06:41.373Z,9.47
2019-01-31T21:09:47.747Z,9.46
2019-01-31T21:12:53.889Z,9.46
2019-01-31T21:15:59.852Z,9.58
2019-01-31T21:19:06.398Z,9.36
2019-01-31T21:22:12.303Z,9.29
2019-01-31T21:25:18.733Z,9.44
2019-01-31T21:28:24.544Z,9.59
2019-01-31T21:31:31.630Z,9.44
2019-01-31T21:34:38.817Z,9.25
2019-01-31T21:37:45.121Z,9.44
2019-01-31T21:40:51.066Z,9.47
2019-01-31T21:43:56.995Z,9.37
2019-01-31T21:47:03.605Z,9.23
2019-01-31T21:50:12.007Z,9.28
2019-01-31T21:53:18.011Z,9.35
2019-01-31T21:56:23.969Z,9.20
2019-01-31T21:59:29.925Z,9.26
2019-01-31T22:02:36.029Z,8.99
2019-01-31T22:05:42.011Z,9.03
2019-01-31T22:08:47.977Z,9.04
2019-01-31T22:11:53.804Z,9.22
2019-01-31T22:14:59.648Z,8.96
2019-01-31T22:18:07.320Z,9.00
2019-01-31T22:21:13.269Z,8.89
2019-01-31T22:24:19.297Z,8.86
2019-01-31T22:27:25.156Z,8.85
2019-01-31T22:30:36.559Z,8.89
2019-01-31T22:33:42.426Z,8.92
2019-01-31T22:36:48.385Z,8.86
2019-01-31T22:39:55.389Z,8.66
2019-01-31T22:43:01.548Z,9.01
2019-01-31T22:46:07.516Z,8.87
2019-01-31T22:49:13.341Z,8.83
2019-01-31T22:52:19.382Z,8.79
2019-01-31T22:55:26.422Z,8.85
2019-01-31T22:58:32.649Z,8.89
2019-01-31T23:01:44.865Z,8.63
2019-01-31T23:04:50.793Z,8.52
2019-01-31T23:07:56.843Z,8.67
2019-01-31T23:11:02.748Z,8.50
2019-01-31T23:14:08.827Z,8.63
2019-01-31T23:17:14.808Z,8.60
2019-01-31T23:20:20.650Z,8.75
2019-01-31T23:23:26.606Z,8.88
2019-01-31T23:26:32.706Z,8.87
2019-01-31T23:29:38.565Z,8.54
2019-01-31T23:32:44.614Z,8.65
2019-01-31T23:35:50.567Z,8.66
2019-01-31T23:38:57.497Z,8.60
2019-01-31T23:42:03.529Z,8.64
2019-01-31T23:45:12.061Z,8.34
2019-01-31T23:48:18.019Z,8.67
2019-01-31T23:51:24.061Z,8.62
2019-01-31T23:54:29.899Z,8.65
2019-01-31T23:57:35.927Z,8.76
